Cocodrie, Louisiana
Current Conditions -  °F | °C
As of 9:15 PM on Saturday 22 Nov 2014 (Local Time) from KHUM Reporting Station
Light Rain Light Rain  
Wind Chill: 65°   Ceiling: 500
Heat Index: 65°   Visibility: 10mi
Dew Point: 64°   Wind: 7mph
Humidity: 96%   Direction: 30°NNE
Pressure: 29.93"   Gusts: 17mph
Location:  29.4719°N, 90.6177°W
Report Text: KHUM 230315Z AUTO 03006G15KT 10SM -RA OVC005 19/18 A2993 RMK AO2 T01860180
Loading
Personal Weather Stations






























Interactive Weather Map New forecast layout! Learn more

10-Day Weather Forecast

Advertisements
Track Severe Weather on mobile